createdAt,value
2019-05-13T00:00:15.152Z,7.02
2019-05-13T00:02:43.913Z,6.95
2019-05-13T00:05:14.773Z,6.97
2019-05-13T00:07:43.932Z,7.09
2019-05-13T00:10:14.640Z,6.84
2019-05-13T00:12:44.518Z,6.77
2019-05-13T00:15:14.375Z,6.71
2019-05-13T00:17:44.725Z,6.64
2019-05-13T00:20:14.275Z,6.54
2019-05-13T00:22:44.623Z,6.55
2019-05-13T00:25:14.538Z,6.48
2019-05-13T00:27:44.339Z,6.33
2019-05-13T00:30:14.533Z,6.29
2019-05-13T00:32:44.566Z,6.19
2019-05-13T00:35:14.184Z,5.88
2019-05-13T00:37:44.314Z,5.85
2019-05-13T00:40:14.458Z,6.05
2019-05-13T00:42:44.131Z,5.89
2019-05-13T00:45:14.627Z,5.70
2019-05-13T00:47:43.729Z,5.84
2019-05-13T00:50:14.323Z,6.00
2019-05-13T00:52:44.947Z,5.84
2019-05-13T00:55:14.742Z,5.77
2019-05-13T00:57:43.937Z,5.76
2019-05-13T01:00:14.408Z,5.79
2019-05-13T01:02:44.585Z,5.99
2019-05-13T01:05:14.704Z,6.09
2019-05-13T01:07:44.460Z,5.65
2019-05-13T01:10:13.682Z,5.68
2019-05-13T01:12:44.092Z,5.57
2019-05-13T01:15:13.558Z,5.51
2019-05-13T01:17:44.710Z,5.62
2019-05-13T01:20:14.476Z,5.49
2019-05-13T01:22:44.058Z,5.42
2019-05-13T01:25:14.485Z,5.42
2019-05-13T01:27:44.154Z,5.39
2019-05-13T01:30:13.751Z,5.21
2019-05-13T01:32:44.514Z,5.06
2019-05-13T01:35:14.908Z,5.13
2019-05-13T01:37:45.903Z,5.05
2019-05-13T01:40:13.902Z,5.02
2019-05-13T01:42:44.437Z,4.92
2019-05-13T01:45:13.903Z,5.07
2019-05-13T01:47:44.115Z,5.11
2019-05-13T01:50:14.374Z,4.95
2019-05-13T01:52:44.639Z,4.77
2019-05-13T01:55:14.770Z,4.95
2019-05-13T01:57:44.390Z,4.83
2019-05-13T02:00:14.362Z,4.88
2019-05-13T02:02:44.612Z,4.82
2019-05-13T02:05:14.296Z,4.87
2019-05-13T02:07:54.565Z,4.76
2019-05-13T02:10:15.322Z,4.70
2019-05-13T02:12:44.659Z,4.65
2019-05-13T02:15:14.484Z,4.59
2019-05-13T02:17:44.714Z,4.63
2019-05-13T02:20:14.889Z,4.85
2019-05-13T02:22:44.538Z,4.60
2019-05-13T02:25:13.909Z,4.76
2019-05-13T02:27:44.012Z,4.79
2019-05-13T02:30:16.071Z,4.85
2019-05-13T02:32:43.667Z,4.66
2019-05-13T02:35:13.864Z,4.84
2019-05-13T02:37:43.828Z,4.64
2019-05-13T02:40:13.833Z,4.57
2019-05-13T02:42:43.661Z,4.27
2019-05-13T02:45:12.907Z,4.49
2019-05-13T02:47:44.314Z,4.43
2019-05-13T02:50:12.873Z,4.67
2019-05-13T02:52:44.346Z,4.48
2019-05-13T02:55:12.772Z,4.45
2019-05-13T02:57:43.616Z,4.57
2019-05-13T03:00:13.285Z,4.28
2019-05-13T03:02:43.834Z,4.44
2019-05-13T03:05:13.634Z,4.63
2019-05-13T03:07:42.952Z,4.43
2019-05-13T03:10:14.062Z,4.41
2019-05-13T03:12:42.811Z,4.45
2019-05-13T03:15:13.396Z,4.49
2019-05-13T03:17:52.916Z,4.45
2019-05-13T03:20:22.837Z,4.30
2019-05-13T03:22:52.510Z,4.60
2019-05-13T03:25:22.810Z,4.73
2019-05-13T03:27:53.927Z,4.64
2019-05-13T03:30:25.680Z,5.17
2019-05-13T03:33:00.384Z,5.28
2019-05-13T03:35:26.798Z,5.36
2019-05-13T03:37:53.637Z,5.56
2019-05-13T03:40:23.442Z,5.77
2019-05-13T03:42:53.773Z,6.18
2019-05-13T03:45:24.732Z,6.30
2019-05-13T03:47:55.570Z,6.40
2019-05-13T03:50:24.121Z,6.61
2019-05-13T03:52:52.938Z,6.63
2019-05-13T03:55:22.947Z,6.42
2019-05-13T03:57:53.257Z,6.62
2019-05-13T04:00:23.501Z,6.28
2019-05-13T04:02:53.287Z,6.27
2019-05-13T04:05:23.261Z,6.13
2019-05-13T04:07:52.569Z,6.19
2019-05-13T04:10:22.907Z,6.19
2019-05-13T04:12:52.924Z,5.90
2019-05-13T04:15:23.514Z,5.46
2019-05-13T04:17:53.280Z,5.38
2019-05-13T04:20:23.356Z,5.25
2019-05-13T04:22:53.457Z,5.23
2019-05-13T04:25:23.084Z,5.21
2019-05-13T04:27:53.455Z,4.94
2019-05-13T04:30:22.830Z,5.43
2019-05-13T04:32:53.388Z,5.38
2019-05-13T04:35:23.380Z,5.34
2019-05-13T04:37:53.072Z,5.97
2019-05-13T04:40:23.105Z,5.76
2019-05-13T04:42:53.614Z,5.51
2019-05-13T04:45:24.074Z,5.77
2019-05-13T04:47:53.136Z,6.74
2019-05-13T04:50:22.758Z,7.77
2019-05-13T04:52:53.037Z,8.61
2019-05-13T04:55:22.934Z,9.31
2019-05-13T04:57:53.214Z,9.27
2019-05-13T05:00:49.914Z,9.65
2019-05-13T05:03:33.091Z,9.86
2019-05-13T05:06:03.324Z,10.16
2019-05-13T05:08:52.558Z,10.22
2019-05-13T05:11:44.405Z,10.13
2019-05-13T05:14:32.465Z,10.35
2019-05-13T05:17:34.231Z,10.36
2019-05-13T05:20:08.589Z,10.98
2019-05-13T05:23:07.020Z,11.03
2019-05-13T05:25:52.141Z,11.15
2019-05-13T05:28:29.416Z,11.16
2019-05-13T05:31:24.016Z,11.49
2019-05-13T05:34:21.918Z,11.21
2019-05-13T05:36:53.714Z,11.61
2019-05-13T05:39:24.936Z,11.92
2019-05-13T05:41:56.401Z,11.90
2019-05-13T05:44:32.394Z,11.65
2019-05-13T05:47:02.817Z,11.81
2019-05-13T05:49:32.373Z,12.06
2019-05-13T05:52:03.570Z,12.35
2019-05-13T05:54:34.628Z,12.21
2019-05-13T05:57:04.844Z,12.58
2019-05-13T05:59:34.357Z,12.62
2019-05-13T06:02:04.114Z,12.54
2019-05-13T06:04:32.822Z,12.95
2019-05-13T06:07:03.518Z,12.84
2019-05-13T06:09:32.459Z,12.91
2019-05-13T06:12:01.919Z,12.61
2019-05-13T06:14:32.659Z,12.88
2019-05-13T06:17:02.585Z,12.14
2019-05-13T06:19:32.013Z,12.72
2019-05-13T06:22:02.249Z,12.39
2019-05-13T06:24:31.431Z,12.36
2019-05-13T06:27:01.563Z,12.49
2019-05-13T06:29:31.672Z,12.49
2019-05-13T06:32:15.110Z,12.34
2019-05-13T06:34:32.801Z,12.24
2019-05-13T06:37:01.905Z,12.47
2019-05-13T06:39:31.629Z,12.28
2019-05-13T06:42:02.712Z,12.16
2019-05-13T06:44:31.644Z,12.04
2019-05-13T06:47:02.429Z,12.44
2019-05-13T06:49:32.273Z,12.29
2019-05-13T06:52:01.658Z,11.69
2019-05-13T06:54:32.959Z,11.87
2019-05-13T06:57:04.553Z,12.22
2019-05-13T06:59:31.760Z,12.04
2019-05-13T07:02:02.101Z,12.13
2019-05-13T07:04:32.739Z,12.33
2019-05-13T07:07:09.837Z,12.03
2019-05-13T07:09:32.347Z,12.33
2019-05-13T07:12:03.175Z,11.75
2019-05-13T07:14:32.495Z,12.25
2019-05-13T07:17:02.001Z,11.84
2019-05-13T07:19:32.324Z,11.64
2019-05-13T07:22:02.658Z,11.70
2019-05-13T07:24:32.291Z,11.62
2019-05-13T07:27:01.984Z,12.29
2019-05-13T07:29:32.438Z,12.24
2019-05-13T07:32:01.958Z,12.23
2019-05-13T07:34:33.476Z,11.98
2019-05-13T07:37:02.249Z,12.29
2019-05-13T07:39:32.807Z,12.83
2019-05-13T07:42:05.254Z,12.90
2019-05-13T07:44:32.601Z,13.26
2019-05-13T07:47:03.448Z,12.82
2019-05-13T07:49:31.867Z,13.03
2019-05-13T07:52:01.687Z,12.68
2019-05-13T07:54:32.957Z,12.70
2019-05-13T07:57:01.928Z,12.84
2019-05-13T07:59:31.861Z,13.12
2019-05-13T08:02:02.042Z,13.03
2019-05-13T08:04:33.457Z,13.04
2019-05-13T08:07:02.259Z,12.95
2019-05-13T08:09:31.907Z,13.01
2019-05-13T08:12:09.899Z,12.98
2019-05-13T08:14:32.895Z,13.08
2019-05-13T08:17:02.572Z,13.36
2019-05-13T08:19:32.587Z,13.36
2019-05-13T08:22:02.161Z,13.24
2019-05-13T08:24:31.562Z,13.01
2019-05-13T08:27:01.997Z,13.16
2019-05-13T08:29:32.734Z,13.37
2019-05-13T08:32:02.796Z,13.51
2019-05-13T08:34:32.868Z,13.47
2019-05-13T08:37:02.941Z,13.39
2019-05-13T08:39:35.792Z,13.59
2019-05-13T08:42:14.686Z,13.52
2019-05-13T08:44:32.422Z,13.36
2019-05-13T08:47:03.094Z,13.25
2019-05-13T08:49:32.594Z,13.69
2019-05-13T08:52:01.982Z,13.82
2019-05-13T08:54:32.938Z,14.10
2019-05-13T08:57:02.773Z,13.99
2019-05-13T08:59:32.156Z,13.96
2019-05-13T09:02:02.958Z,14.26
2019-05-13T09:04:31.713Z,14.32
2019-05-13T09:07:02.321Z,14.43
2019-05-13T09:09:31.610Z,14.27
2019-05-13T09:12:02.539Z,14.38
2019-05-13T09:14:32.340Z,14.56
2019-05-13T09:17:02.082Z,14.33
2019-05-13T09:19:32.308Z,14.39
2019-05-13T09:22:03.119Z,14.21
2019-05-13T09:24:37.345Z,14.62
2019-05-13T09:27:02.027Z,14.63
2019-05-13T09:29:32.247Z,14.67
2019-05-13T09:32:03.669Z,14.59
2019-05-13T09:34:32.835Z,14.29
2019-05-13T09:37:02.750Z,14.45
2019-05-13T09:39:32.412Z,14.12
2019-05-13T09:42:02.607Z,14.60
2019-05-13T09:44:32.730Z,14.62
2019-05-13T09:47:02.594Z,14.59
2019-05-13T09:49:33.003Z,14.96
2019-05-13T09:52:02.056Z,14.75
2019-05-13T09:54:33.046Z,14.92
2019-05-13T09:57:02.093Z,15.35
2019-05-13T09:59:31.865Z,14.91
2019-05-13T10:02:03.105Z,15.40
2019-05-13T10:04:32.067Z,15.02
2019-05-13T10:07:02.107Z,14.99
2019-05-13T10:09:32.550Z,15.01
2019-05-13T10:12:03.197Z,14.68
2019-05-13T10:14:32.761Z,14.62
2019-05-13T10:17:05.980Z,14.46
2019-05-13T10:19:32.559Z,14.99
2019-05-13T10:22:01.414Z,14.91
2019-05-13T10:24:32.502Z,15.41
2019-05-13T10:27:02.422Z,15.08
2019-05-13T10:29:32.233Z,14.94
2019-05-13T10:34:32.567Z,15.20
2019-05-13T10:37:02.576Z,15.49
2019-05-13T10:39:31.184Z,15.50
2019-05-13T10:41:59.624Z,15.27
2019-05-13T10:44:28.096Z,15.39
2019-05-13T10:46:56.525Z,15.40
2019-05-13T10:49:25.081Z,15.55
2019-05-13T10:51:53.523Z,15.73
2019-05-13T10:54:22.037Z,15.40
2019-05-13T10:56:53.155Z,15.62
2019-05-13T10:59:22.956Z,15.86
2019-05-13T11:01:50.870Z,15.64
2019-05-13T11:04:21.864Z,16.05
2019-05-13T11:06:52.414Z,15.46
2019-05-13T11:09:21.893Z,15.65
2019-05-13T11:11:52.924Z,15.41
2019-05-13T11:14:22.075Z,15.56
2019-05-13T11:16:52.344Z,15.38
2019-05-13T11:19:23.188Z,15.34
2019-05-13T11:21:51.693Z,15.82
2019-05-13T11:24:22.601Z,15.83
2019-05-13T11:26:52.264Z,15.87
2019-05-13T11:29:22.998Z,15.82
2019-05-13T11:31:52.501Z,16.06
2019-05-13T11:34:22.155Z,15.96
2019-05-13T11:36:53.382Z,15.84
2019-05-13T11:39:21.853Z,16.07
2019-05-13T11:41:50.709Z,15.49
2019-05-13T11:44:19.258Z,15.54
2019-05-13T11:46:47.696Z,15.52
2019-05-13T11:49:16.160Z,15.67
2019-05-13T11:51:45.193Z,15.61
2019-05-13T11:54:14.275Z,15.88
2019-05-13T11:56:49.189Z,15.66
2019-05-13T11:59:14.083Z,15.90
2019-05-13T12:01:43.169Z,15.89
2019-05-13T12:04:11.731Z,15.99
2019-05-13T12:09:13.051Z,16.53
2019-05-13T12:11:40.816Z,16.44
2019-05-13T12:14:34.712Z,16.08
2019-05-13T12:16:42.327Z,15.75
2019-05-13T12:19:11.855Z,15.85
2019-05-13T12:21:43.342Z,16.04
2019-05-13T12:24:11.316Z,16.05
2019-05-13T12:26:43.082Z,16.36
2019-05-13T12:29:18.339Z,16.07
2019-05-13T12:31:40.444Z,16.34
2019-05-13T12:34:12.844Z,16.19
2019-05-13T12:36:42.961Z,16.35
2019-05-13T12:39:13.827Z,16.13
2019-05-13T12:41:42.092Z,16.49
2019-05-13T12:44:12.786Z,16.41
2019-05-13T12:46:41.497Z,16.38
2019-05-13T12:49:14.188Z,16.36
2019-05-13T12:51:43.998Z,16.41
2019-05-13T12:54:13.527Z,16.66
2019-05-13T12:56:42.508Z,16.25
2019-05-13T12:59:13.296Z,16.49
2019-05-13T13:01:41.406Z,16.76
2019-05-13T13:04:12.352Z,16.79
2019-05-13T13:06:44.832Z,17.07
2019-05-13T13:11:43.464Z,17.06
2019-05-13T13:14:15.087Z,16.83
2019-05-13T13:16:42.430Z,16.67
2019-05-13T13:19:14.812Z,16.65
2019-05-13T13:21:41.475Z,16.70
2019-05-13T13:24:12.304Z,16.83
2019-05-13T13:26:42.424Z,16.64
2019-05-13T13:29:10.493Z,17.26
2019-05-13T13:31:42.720Z,17.07
2019-05-13T13:34:16.379Z,16.95
2019-05-13T13:36:45.238Z,16.91
2019-05-13T13:39:13.727Z,16.99
2019-05-13T13:41:43.436Z,16.93
2019-05-13T13:44:12.349Z,16.96
2019-05-13T13:46:47.400Z,16.95
2019-05-13T13:49:12.943Z,16.75
2019-05-13T13:51:44.394Z,16.94
2019-05-13T13:54:11.157Z,16.98
2019-05-13T13:56:42.722Z,16.93
2019-05-13T13:59:12.861Z,16.77
2019-05-13T14:01:40.002Z,16.77
2019-05-13T14:04:08.593Z,17.06
2019-05-13T14:06:31.860Z,16.31
2019-05-13T14:06:44.450Z,16.96
2019-05-13T14:07:05.575Z,15.58
2019-05-13T14:09:08.202Z,17.10
2019-05-13T14:11:36.656Z,17.04
2019-05-13T14:14:05.479Z,16.67
2019-05-13T14:16:35.169Z,16.87
2019-05-13T14:19:04.353Z,17.01
2019-05-13T14:21:32.814Z,17.04
2019-05-13T14:24:02.643Z,16.83
2019-05-13T14:26:32.988Z,17.15
2019-05-13T14:29:02.652Z,16.96
2019-05-13T14:31:32.371Z,16.89
2019-05-13T14:34:03.375Z,17.17
2019-05-13T14:36:31.305Z,17.29
2019-05-13T14:39:02.588Z,17.00
2019-05-13T14:41:31.232Z,17.24
2019-05-13T14:43:59.957Z,16.90
2019-05-13T14:46:45.815Z,17.12
2019-05-13T14:48:58.583Z,17.28
2019-05-13T14:51:27.080Z,17.23
2019-05-13T14:53:55.490Z,16.78
2019-05-13T14:56:24.067Z,17.24
2019-05-13T14:58:52.511Z,16.81
2019-05-13T15:01:22.660Z,16.96
2019-05-13T15:03:52.008Z,16.95
2019-05-13T15:06:21.991Z,16.91
2019-05-13T15:08:52.692Z,17.11
2019-05-13T15:11:21.983Z,16.87
2019-05-13T15:13:51.785Z,17.22
2019-05-13T15:16:22.404Z,16.83
2019-05-13T15:18:52.511Z,17.03
2019-05-13T15:21:21.461Z,17.11
2019-05-13T15:23:51.820Z,17.18
2019-05-13T15:26:22.294Z,17.17
2019-05-13T15:28:51.848Z,17.37
2019-05-13T15:31:22.099Z,17.28
2019-05-13T15:33:52.421Z,17.17
2019-05-13T15:36:22.588Z,17.25
2019-05-13T15:38:51.962Z,17.10
2019-05-13T15:41:20.584Z,17.09
2019-05-13T15:43:51.246Z,17.10
2019-05-13T15:46:21.826Z,16.82
2019-05-13T15:48:51.465Z,17.14
2019-05-13T15:51:22.148Z,16.90
2019-05-13T15:53:51.676Z,16.91
2019-05-13T15:56:22.430Z,17.02
2019-05-13T15:58:52.974Z,16.83
2019-05-13T16:01:22.961Z,16.68
2019-05-13T16:03:52.406Z,16.82
2019-05-13T16:06:21.425Z,16.73
2019-05-13T16:08:51.944Z,16.86
2019-05-13T16:11:21.960Z,16.82
2019-05-13T16:13:51.877Z,16.63
2019-05-13T16:16:22.057Z,16.70
2019-05-13T16:18:51.444Z,16.83
2019-05-13T16:21:20.335Z,16.89
2019-05-13T16:23:48.747Z,16.83
2019-05-13T16:26:17.271Z,16.79
2019-05-13T16:28:45.830Z,16.68
2019-05-13T16:31:14.359Z,16.91
2019-05-13T16:33:42.783Z,16.57
2019-05-13T16:36:12.680Z,16.71
2019-05-13T16:38:41.872Z,16.67
2019-05-13T16:41:12.469Z,16.58
2019-05-13T16:43:42.677Z,16.74
2019-05-13T16:46:12.201Z,16.66
2019-05-13T16:48:41.597Z,16.71
2019-05-13T16:51:12.330Z,16.85
2019-05-13T16:53:42.112Z,16.75
2019-05-13T16:56:25.309Z,16.73
2019-05-13T16:58:41.885Z,16.52
2019-05-13T17:01:11.877Z,16.58
2019-05-13T17:03:41.476Z,16.64
2019-05-13T17:06:12.494Z,16.52
2019-05-13T17:08:42.418Z,16.33
2019-05-13T17:11:11.820Z,16.47
2019-05-13T17:13:42.202Z,16.46
2019-05-13T17:16:10.763Z,16.40
2019-05-13T17:18:41.480Z,16.53
2019-05-13T17:21:09.423Z,16.47
2019-05-13T17:23:37.853Z,16.25
2019-05-13T17:26:06.309Z,16.48
2019-05-13T17:28:34.859Z,16.25
2019-05-13T17:31:03.441Z,16.16
2019-05-13T17:33:32.121Z,16.14
2019-05-13T17:36:01.956Z,16.00
2019-05-13T17:38:32.255Z,16.05
2019-05-13T17:41:02.394Z,16.11
2019-05-13T17:43:32.170Z,16.00
2019-05-13T17:46:00.936Z,16.05
2019-05-13T17:48:32.617Z,15.73
2019-05-13T17:51:01.328Z,15.88
2019-05-13T17:53:32.389Z,15.90
2019-05-13T17:56:02.454Z,15.76
2019-05-13T17:58:31.426Z,15.77
2019-05-13T18:01:01.656Z,15.56
2019-05-13T18:03:32.072Z,15.62
2019-05-13T18:06:02.436Z,15.79
2019-05-13T18:08:31.989Z,15.71
2019-05-13T18:11:02.157Z,15.50
2019-05-13T18:13:31.259Z,15.45
2019-05-13T18:16:02.563Z,15.44
2019-05-13T18:18:40.577Z,15.38
2019-05-13T18:21:01.476Z,15.26
2019-05-13T18:23:30.117Z,15.16
2019-05-13T18:25:58.695Z,15.07
2019-05-13T18:28:31.073Z,14.87
2019-05-13T18:30:57.383Z,14.77
2019-05-13T18:33:25.876Z,14.75
2019-05-13T18:35:54.597Z,14.39
2019-05-13T18:38:23.030Z,14.57
2019-05-13T18:40:52.593Z,14.69
2019-05-13T18:43:21.645Z,14.47
2019-05-13T18:45:52.278Z,14.05
2019-05-13T18:48:21.868Z,14.04
2019-05-13T18:50:52.390Z,14.11
2019-05-13T18:53:21.519Z,13.96
2019-05-13T18:55:52.394Z,14.03
2019-05-13T18:58:22.236Z,13.86
2019-05-13T19:00:52.348Z,13.69
2019-05-13T19:03:21.747Z,13.84
2019-05-13T19:05:50.528Z,13.56
2019-05-13T19:08:21.292Z,13.60
2019-05-13T19:10:49.275Z,13.25
2019-05-13T19:13:17.806Z,13.02
2019-05-13T19:15:46.374Z,13.20
2019-05-13T19:18:14.851Z,13.19
2019-05-13T19:20:43.304Z,13.10
2019-05-13T19:23:12.035Z,12.94
2019-05-13T19:25:42.732Z,12.96
2019-05-13T19:28:11.890Z,12.57
2019-05-13T19:30:41.138Z,12.43
2019-05-13T19:33:12.136Z,12.26
2019-05-13T19:35:42.405Z,12.27
2019-05-13T19:38:12.141Z,12.37
2019-05-13T19:40:41.951Z,12.35
2019-05-13T19:43:11.548Z,12.26
2019-05-13T19:45:41.613Z,12.08
2019-05-13T19:48:11.810Z,12.01
2019-05-13T19:50:41.628Z,11.83
2019-05-13T19:53:12.078Z,11.80
2019-05-13T19:55:41.481Z,11.65
2019-05-13T19:58:12.208Z,11.71
2019-05-13T20:00:42.371Z,11.73
2019-05-13T20:03:11.747Z,11.78
2019-05-13T20:05:41.437Z,11.84
2019-05-13T20:08:10.256Z,11.70
2019-05-13T20:10:38.723Z,11.62
2019-05-13T20:13:07.264Z,11.52
2019-05-13T20:15:35.696Z,11.33
2019-05-13T20:18:04.260Z,11.42
2019-05-13T20:20:32.888Z,11.30
2019-05-13T20:23:01.694Z,11.22
2019-05-13T20:25:31.210Z,11.24
2019-05-13T20:28:02.158Z,11.22
2019-05-13T20:30:29.941Z,11.41
2019-05-13T20:32:58.388Z,11.25
2019-05-13T20:35:26.843Z,10.91
2019-05-13T20:37:55.274Z,11.03
2019-05-13T20:40:23.774Z,10.89
2019-05-13T20:42:52.266Z,10.75
2019-05-13T20:45:22.505Z,10.61
2019-05-13T20:47:51.096Z,10.34
2019-05-13T20:50:21.716Z,10.08
2019-05-13T20:52:51.608Z,10.28
2019-05-13T20:55:22.071Z,10.18
2019-05-13T20:57:52.822Z,10.44
2019-05-13T21:00:20.785Z,10.28
2019-05-13T21:02:51.496Z,10.45
2019-05-13T21:05:21.655Z,10.37
2019-05-13T21:07:51.601Z,10.66
2019-05-13T21:10:21.165Z,10.58
2019-05-13T21:12:51.368Z,10.43
2019-05-13T21:15:20.043Z,10.35
2019-05-13T21:17:48.516Z,10.19
2019-05-13T21:20:21.993Z,9.96
2019-05-13T21:22:47.372Z,9.97
2019-05-13T21:25:16.331Z,10.01
2019-05-13T21:27:44.878Z,9.94
2019-05-13T21:30:14.005Z,9.99
2019-05-13T21:32:42.565Z,9.87
2019-05-13T21:35:12.007Z,9.90
2019-05-13T21:37:40.607Z,10.18
2019-05-13T21:40:11.185Z,9.94
2019-05-13T21:42:41.864Z,10.08
2019-05-13T21:45:11.240Z,10.03
2019-05-13T21:47:39.904Z,10.12
2019-05-13T21:50:08.774Z,10.28
2019-05-13T21:52:37.855Z,10.28
2019-05-13T21:55:07.310Z,10.47
2019-05-13T21:57:35.771Z,10.71
2019-05-13T22:00:10.485Z,10.55
2019-05-13T22:02:40.791Z,10.21
2019-05-13T22:05:11.593Z,10.04
2019-05-13T22:07:41.900Z,9.89
2019-05-13T22:10:10.624Z,10.04
2019-05-13T22:12:41.270Z,9.82
2019-05-13T22:15:10.138Z,9.90
2019-05-13T22:17:38.601Z,10.09
2019-05-13T22:20:09.362Z,10.12
2019-05-13T22:22:37.797Z,10.00
2019-05-13T22:25:09.465Z,9.91
2019-05-13T22:27:37.925Z,9.91
2019-05-13T22:30:11.872Z,9.88
2019-05-13T22:32:41.774Z,9.98
2019-05-13T22:35:11.208Z,10.05
2019-05-13T22:37:39.879Z,10.20
2019-05-13T22:40:11.084Z,9.97
2019-05-13T22:42:41.337Z,10.17
2019-05-13T22:45:11.479Z,9.94
2019-05-13T22:47:41.537Z,9.97
2019-05-13T22:50:11.393Z,9.94
2019-05-13T22:52:41.967Z,9.99
2019-05-13T22:55:11.529Z,10.00
2019-05-13T22:57:41.956Z,9.89
2019-05-13T23:00:11.860Z,9.88
2019-05-13T23:02:42.160Z,9.93
2019-05-13T23:05:11.413Z,9.79
2019-05-13T23:07:40.001Z,9.94
2019-05-13T23:10:09.661Z,9.90
2019-05-13T23:12:39.298Z,9.78
2019-05-13T23:15:08.593Z,9.76
2019-05-13T23:17:37.128Z,9.79
2019-05-13T23:20:08.842Z,9.82
2019-05-13T23:22:37.335Z,9.97
2019-05-13T23:25:08.813Z,10.08
2019-05-13T23:27:37.264Z,9.85
2019-05-13T23:30:11.642Z,9.68
2019-05-13T23:32:39.851Z,9.79
2019-05-13T23:35:08.461Z,9.62
2019-05-13T23:37:36.887Z,9.72
2019-05-13T23:40:08.606Z,9.80
2019-05-13T23:42:37.058Z,9.59
2019-05-13T23:45:08.699Z,9.56
2019-05-13T23:47:37.128Z,9.42
2019-05-13T23:50:06.694Z,9.71
2019-05-13T23:52:35.115Z,9.53
2019-05-13T23:55:05.971Z,9.42
2019-05-13T23:57:34.679Z,9.31
